.
WxDataArchive / Data Records for 2006-07-02
2006-07-01 July 2006 2006-07-03

Data Records for Sunday, 02 July 2006

Time	Temp	Chill	HIndex	Humid	Dewpt	 Wind 	HiWind	WindDir	Rain 	Barom 
-----	----	-----	------	-----	-----	------	------	-------	-----	----- 
00:00	81.1	81.1	81.8	50	60.7	3	9	248	0.00	29.928 
00:05	81.1	81.1	81.8	50	60.7	3	7	248	0.00	29.928 
00:10	80.9	80.9	81.6	50	60.5	3	6	248	0.00	29.928 
00:15	80.9	80.9	81.6	50	60.5	3	5	248	0.00	29.926 
00:20	81.1	81.1	81.8	50	60.7	3	10	270	0.00	29.926 
00:25	80.9	80.9	81.6	50	60.5	3	5	248	0.00	29.926 
00:30	80.9	80.9	81.6	50	60.5	3	9	248	0.00	29.934 
00:35	80.9	80.9	81.6	50	60.5	4	10	248	0.00	29.934 
00:40	81.1	81.1	81.8	50	60.7	4	7	270	0.00	29.934 
00:45	81.1	81.1	81.8	50	60.7	3	6	270	0.00	29.939 
00:50	80.9	80.9	81.8	51	61.0	3	7	270	0.00	29.939 
00:55	80.7	80.7	81.7	52	61.4	3	5	270	0.00	29.939 
01:00	80.5	80.5	81.5	52	61.2	2	5	248	0.00	29.938 
01:05	80.3	80.3	81.3	52	61.0	2	6	248	0.00	29.938 
01:10	80.5	80.5	81.4	51	60.7	3	6	270	0.00	29.938 
01:15	80.9	80.9	81.8	51	61.0	3	6	248	0.00	29.929 
01:20	80.7	80.7	81.6	51	60.9	2	5	248	0.00	29.929 
01:25	80.3	80.3	81.3	52	61.0	2	6	248	0.00	29.929 
01:30	80.3	80.3	81.3	52	61.0	3	5	248	0.00	29.923 
01:35	80.1	80.1	81.2	53	61.4	3	6	248	0.00	29.923 
01:40	79.9	79.9	81.0	53	61.2	3	6	270	0.00	29.923 
01:45	80.1	80.1	81.2	53	61.4	3	7	248	0.00	29.923 
01:50	79.9	79.9	81.0	53	61.2	3	6	270	0.00	29.923 
01:55	79.6	79.6	80.7	53	60.9	3	8	248	0.00	29.923 
02:00	79.6	79.6	80.8	54	61.5	2	7	248	0.00	29.921 
02:05	79.4	79.4	80.5	53	60.8	3	5	248	0.00	29.921 
02:10	79.4	79.4	80.6	54	61.3	3	6	248	0.00	29.921 
02:15	79.4	79.4	80.5	53	60.8	4	13	248	0.00	29.926 
02:20	79.6	79.6	80.7	53	60.9	3	7	248	0.00	29.926 
02:25	79.9	79.9	80.9	52	60.7	4	11	248	0.00	29.926 
02:30	79.8	79.8	80.9	53	61.1	3	9	248	0.00	29.926 
02:35	79.6	79.6	80.8	54	61.5	3	6	248	0.00	29.926 
02:40	79.4	79.4	80.7	55	61.8	2	5	248	0.00	29.926 
02:45	79.0	79.0	80.4	56	61.9	2	5	248	0.00	29.925 
02:50	78.8	78.8	80.3	57	62.3	2	4	248	0.00	29.925 
02:55	78.5	78.5	80.0	57	62.0	3	7	248	0.00	29.925 
03:00	78.5	78.5	80.0	57	62.0	3	5	248	0.00	29.926 
03:05	78.3	78.3	79.8	57	61.8	3	7	248	0.00	29.926 
03:10	78.3	78.3	79.8	56	61.3	3	6	248	0.00	29.926 
03:15	78.3	78.3	79.8	57	61.8	3	6	248	0.00	29.923 
03:20	78.3	78.3	79.8	57	61.8	3	7	248	0.00	29.923 
03:25	78.5	78.5	79.9	56	61.5	3	5	270	0.00	29.923 
03:30	78.6	78.6	80.0	56	61.6	3	6	248	0.00	29.924 
03:35	78.6	78.6	80.0	56	61.6	4	7	270	0.00	29.924 
03:40	78.8	78.8	80.2	56	61.8	4	9	248	0.00	29.924 
03:45	78.8	78.8	80.2	56	61.8	3	7	248	0.00	29.928 
03:50	78.6	78.6	80.1	57	62.1	3	6	248	0.00	29.928 
03:55	78.5	78.5	80.0	57	62.0	2	5	248	0.00	29.928 
04:00	78.5	78.5	80.0	57	62.0	3	7	248	0.00	29.927 
04:05	78.3	78.3	79.8	57	61.8	2	7	248	0.00	29.927 
04:10	78.3	78.3	79.9	58	62.3	2	4	270	0.00	29.927 
04:15	78.1	78.1	79.7	58	62.1	2	6	248	0.00	29.931 
04:20	78.3	78.3	79.9	58	62.3	3	6	270	0.00	29.931 
04:25	78.3	78.3	79.8	57	61.8	3	7	248	0.00	29.931 
04:30	78.1	78.1	79.6	57	61.6	3	7	248	0.00	29.931 
04:35	78.1	78.1	79.6	57	61.6	3	7	248	0.00	29.931 
04:40	78.1	78.1	79.6	57	61.6	3	5	248	0.00	29.931 
04:45	78.1	78.1	79.6	57	61.6	2	4	248	0.00	29.929 
04:50	78.1	78.1	79.6	57	61.6	3	6	248	0.00	29.929 
04:55	78.3	78.3	79.8	56	61.3	3	6	248	0.00	29.929 
05:00	78.3	78.3	79.8	56	61.3	2	5	270	0.00	29.927 
05:05	78.1	78.1	79.6	57	61.6	3	6	248	0.00	29.927 
05:10	78.1	78.1	79.6	57	61.6	3	6	248	0.00	29.927 
05:15	78.1	78.1	79.6	57	61.6	2	5	248	0.00	29.927 
05:20	78.1	78.1	79.6	57	61.6	3	6	248	0.00	29.927 
05:25	78.1	78.1	79.6	57	61.6	3	10	248	0.00	29.927 
05:30	78.1	78.1	79.6	57	61.6	2	5	270	0.00	29.927 
05:35	77.9	77.9	79.5	57	61.4	2	7	248	0.00	29.927 
05:40	77.9	77.9	79.5	58	61.9	3	6	248	0.00	29.927 
05:45	77.7	77.7	79.3	58	61.7	2	4	248	0.00	29.930 
05:50	77.7	77.7	79.3	58	61.7	2	5	248	0.00	29.930 
05:55	77.7	77.7	79.3	58	61.7	4	10	248	0.00	29.930 
06:00	78.1	78.1	79.7	58	62.1	3	9	248	0.00	29.933 
06:05	78.1	78.1	79.7	58	62.1	2	6	248	0.00	29.933 
06:10	77.9	77.9	79.5	59	62.4	3	6	270	0.00	29.933 
06:15	77.9	77.9	79.5	58	61.9	3	9	270	0.00	29.933 
06:20	77.9	77.9	79.5	59	62.4	2	6	248	0.00	29.933 
06:25	78.1	78.1	79.7	58	62.1	3	7	270	0.00	29.933 
06:30	78.1	78.1	79.7	58	62.1	3	10	248	0.00	29.939 
06:35	77.9	77.9	79.5	59	62.4	2	6	248	0.00	29.939 
06:40	77.9	77.9	79.5	59	62.4	2	5	248	0.00	29.939 
06:45	77.7	77.7	79.4	60	62.7	2	6	248	0.00	29.939 
06:50	78.1	78.1	79.7	59	62.6	3	7	248	0.00	29.939 
06:55	78.1	78.1	79.7	59	62.6	3	7	248	0.00	29.939 
07:00	77.6	77.6	79.4	64	64.4	2	6	270	0.00	29.941 
07:05	76.5	76.5	78.3	66	64.3	2	5	248	0.01	29.941 
07:10	75.6	75.6	77.3	69	64.7	2	6	248	0.01	29.941 
07:15	74.9	74.9	74.9	71	64.8	3	5	248	0.00	29.944 
07:20	74.6	74.6	74.6	72	65.0	2	5	248	0.00	29.944 
07:25	74.6	74.6	74.6	71	64.6	2	5	248	0.00	29.944 
07:30	74.7	74.7	74.7	70	64.2	2	4	248	0.00	29.945 
07:35	75.3	75.3	77.1	68	64.0	2	6	248	0.00	29.945 
07:40	75.8	75.8	77.6	67	64.0	2	6	248	0.00	29.945 
07:45	76.1	76.1	77.9	66	63.9	2	9	248	0.00	29.945 
07:50	76.3	76.3	78.1	66	64.1	2	4	225	0.00	29.945 
07:55	76.5	76.5	78.3	65	63.8	2	4	248	0.00	29.945 
08:00	76.7	76.7	78.5	65	64.0	3	6	248	0.00	29.952 
08:05	76.8	76.8	78.6	64	63.7	4	8	270	0.00	29.952 
08:10	77.4	77.4	79.2	63	63.8	4	12	248	0.00	29.952 
08:15	77.4	77.4	79.2	63	63.8	5	11	248	0.00	29.963 
08:20	77.4	77.4	79.1	61	62.9	5	13	270	0.00	29.963 
08:25	76.8	76.8	78.6	65	64.1	5	10	270	0.00	29.963 
08:30	75.4	75.4	77.2	68	64.1	3	7	270	0.00	29.978 
08:35	74.4	74.4	74.4	72	64.8	4	7	270	0.00	29.978 
08:40	73.7	73.7	73.7	73	64.5	4	7	270	0.00	29.978 
08:45	73.3	73.3	73.3	74	64.5	4	6	270	0.00	29.992 
08:50	72.8	72.8	72.8	76	64.8	4	6	270	0.01	29.992 
08:55	72.7	72.7	72.7	76	64.7	3	9	270	0.00	29.992 
09:00	72.3	72.3	72.3	78	65.0	4	7	270	0.01	29.998 
09:05	71.6	71.6	71.6	80	65.1	3	6	270	0.00	29.998 
09:10	71.3	71.3	71.3	80	64.8	3	6	270	0.01	29.998 
09:15	70.9	70.9	70.9	81	64.8	2	5	248	0.00	30.005 
09:20	70.8	70.8	70.8	82	65.0	2	4	248	0.00	30.005 
09:25	70.6	70.6	70.6	83	65.2	2	4	248	0.01	30.005 
09:30	70.4	70.4	70.4	83	65.0	3	6	270	0.00	30.013 
09:35	70.8	70.8	70.8	82	65.0	3	8	270	0.01	30.013 
09:40	70.8	70.8	70.8	83	65.4	2	3	248	0.00	30.013 
09:45	70.9	70.9	70.9	83	65.5	1	3	270	0.00	30.016 
09:50	71.1	71.1	71.1	83	65.7	1	3	225	0.00	30.016 
09:55	71.1	71.1	71.1	82	65.3	2	5	248	0.00	30.016 
10:00	71.5	71.5	71.5	81	65.4	3	6	270	0.00	30.013 
10:05	71.3	71.3	71.3	83	65.9	1	4	270	0.00	30.013 
10:10	71.1	71.1	71.1	83	65.7	2	3	270	0.00	30.013 
10:15	71.1	71.1	71.1	82	65.3	2	3	248	0.00	30.014 
10:20	71.1	71.1	71.1	82	65.3	1	3	248	0.00	30.014 
10:25	71.3	71.3	71.3	83	65.9	1	2	270	0.00	30.014 
10:30	71.3	71.3	71.3	83	65.9	1	4	248	0.00	30.010 
10:35	71.6	71.6	71.6	82	65.8	1	2	248	0.00	30.010 
10:40	72.0	72.0	72.0	81	65.8	1	3	248	0.00	30.010 
10:45	72.5	72.5	72.5	81	66.3	1	2	248	0.00	29.999 
10:50	73.0	73.0	73.0	82	67.2	1	3	248	0.00	29.999 
10:55	73.2	73.2	73.2	80	66.6	1	4	248	0.00	29.999 
11:00	73.5	73.5	73.5	80	66.9	1	2	248	0.00	29.995 
11:05	73.7	73.7	73.7	79	66.8	1	4	248	0.00	29.995 
11:10	73.9	73.9	73.9	79	67.0	1	3	292	0.00	29.995 
11:15	74.2	74.2	74.2	78	66.9	1	3	270	0.00	29.997 
11:20	74.9	74.9	74.9	77	67.2	1	5	248	0.00	29.997 
11:25	75.3	75.3	76.5	75	66.8	1	4	248	0.00	29.997 
11:30	75.8	75.8	77.1	75	67.3	1	3	248	0.00	30.000 
11:35	76.0	76.0	77.4	74	67.1	1	2	248	0.00	30.000 
11:40	76.1	76.1	77.5	74	67.2	1	3	248	0.00	30.000 
11:45	76.3	76.3	77.8	73	67.0	0	3	248	0.00	30.005 
11:50	76.5	76.5	78.1	73	67.2	0	2	248	0.00	30.005 
11:55	76.8	76.8	78.5	73	67.5	0	1	248	0.00	30.005 
12:00	77.7	77.7	79.7	74	68.7	0	2	248	0.00	30.007 
12:05	78.8	78.8	81.2	71	68.6	0	2	248	0.00	30.007 
12:10	79.4	79.4	81.7	67	67.5	1	3	248	0.00	30.007 
12:15	79.6	79.6	82.1	68	68.1	1	2	248	0.00	30.007 
12:20	80.1	80.1	82.6	66	67.7	1	3	248	0.00	30.007 
12:25	80.5	80.5	83.1	65	67.6	1	4	248	0.00	30.007 
12:30	80.9	80.9	83.2	62	66.6	2	4	270	0.00	30.007 
12:35	81.6	81.6	84.2	62	67.3	2	4	248	0.00	30.007 
12:40	82.0	82.0	84.6	61	67.2	2	4	248	0.00	30.007 
12:45	82.8	82.8	85.4	59	67.0	2	4	270	0.00	30.004 
12:50	83.4	83.4	85.8	57	66.5	2	4	270	0.00	30.004 
12:55	83.0	83.0	85.5	58	66.7	2	4	248	0.00	30.004 
13:00	83.0	83.0	85.5	58	66.7	2	5	248	0.00	30.005 
13:05	83.6	83.6	86.4	58	67.2	2	3	270	0.00	30.005 
13:10	84.1	84.1	86.4	55	66.2	2	4	270	0.00	30.005 
13:15	84.9	84.9	87.9	56	67.4	2	3	270	0.00	30.001 
13:20	85.1	85.1	87.9	55	67.1	2	4	270	0.00	30.001 
13:25	85.9	85.9	90.2	58	69.4	2	6	248	0.00	30.001 
13:30	86.1	86.1	88.3	51	65.8	3	6	270	0.00	29.998 
13:35	86.3	86.3	89.3	53	67.1	2	4	270	0.00	29.998 
13:40	86.5	86.5	88.9	51	66.2	1	3	248	0.00	29.998 
13:45	86.3	86.3	89.6	54	67.7	2	6	248	0.00	29.996 
13:50	86.5	86.5	88.9	51	66.2	2	4	248	0.00	29.996 
13:55	86.5	86.5	89.3	52	66.7	2	5	248	0.00	29.996 
14:00	86.5	86.5	89.6	53	67.3	2	4	248	0.00	29.989 
14:05	87.2	87.2	90.1	51	66.8	2	6	270	0.00	29.989 
14:10	87.4	87.4	89.7	49	65.9	3	5	270	0.00	29.989 
14:15	87.2	87.2	89.7	50	66.3	1	3	248	0.00	29.985 
14:20	87.8	87.8	91.1	51	67.4	1	3	248	0.00	29.985 
14:25	88.4	88.4	91.7	50	67.4	2	5	270	0.00	29.985 
14:30	88.8	88.8	91.3	47	65.9	2	5	270	0.00	29.984 
14:35	88.4	88.4	90.3	46	64.9	1	4	315	0.00	29.984 
14:40	88.4	88.4	91.3	49	66.8	2	4	248	0.00	29.984 
14:45	88.6	88.6	91.7	49	67.0	2	6	248	0.00	29.984 
14:50	88.0	88.0	90.7	49	66.4	2	4	338	0.00	29.984 
14:55	87.6	87.6	89.4	47	64.8	2	5	248	0.00	29.984 
15:00	87.2	87.2	89.1	48	65.1	2	4	270	0.00	29.979 
15:05	87.0	87.0	88.5	47	64.3	2	5	270	0.00	29.979 
15:10	86.5	86.5	88.1	48	64.4	2	4	248	0.00	29.979 
15:15	86.5	86.5	88.3	49	65.0	2	3	270	0.00	29.978 
15:20	86.7	86.7	88.6	49	65.2	2	4	248	0.00	29.978 
15:25	87.6	87.6	90.4	50	66.6	1	3	270	0.00	29.978 
15:30	88.2	88.2	90.0	46	64.8	2	3	292	0.00	29.975 
15:35	88.6	88.6	90.6	46	65.1	2	4	270	0.00	29.975 
15:40	88.6	88.6	90.6	46	65.1	2	5	270	0.00	29.975 
15:45	88.4	88.4	90.3	46	64.9	3	6	248	0.00	29.973 
15:50	88.2	88.2	90.3	47	65.4	1	4	248	0.00	29.973 
15:55	88.2	88.2	91.0	49	66.6	1	3	315	0.00	29.973 
16:00	88.2	88.2	91.0	49	66.6	1	2	315	0.00	29.972 
16:05	88.4	88.4	90.6	47	65.6	1	2	292	0.00	29.972 
16:10	88.0	88.0	91.4	51	67.6	1	3	292	0.00	29.972 
16:15	87.4	87.4	90.4	51	67.0	1	3	315	0.00	29.971 
16:20	87.0	87.0	89.7	51	66.6	1	4	315	0.00	29.971 
16:25	86.7	86.7	89.6	52	66.9	1	3	338	0.00	29.971 
16:30	87.2	87.2	90.8	53	67.9	1	3	292	0.00	29.969 
16:35	88.0	88.0	91.4	51	67.6	1	3	270	0.00	29.969 
16:40	88.0	88.0	91.0	50	67.0	1	3	338	0.00	29.969 
16:45	87.8	87.8	91.4	52	67.9	1	3	248	0.00	29.962 
16:50	87.0	87.0	89.4	50	66.1	1	3	315	0.00	29.962 
16:55	87.0	87.0	89.7	51	66.6	1	3	292	0.00	29.962 
17:00	87.2	87.2	90.1	51	66.8	1	2	292	0.00	29.958 
17:05	87.0	87.0	89.4	50	66.1	1	3	0	0.00	29.958 
17:10	86.7	86.7	88.9	50	65.8	0	1	0	0.00	29.958 
17:15	87.0	87.0	89.1	49	65.5	1	3	0	0.00	29.958 
17:20	86.7	86.7	88.6	49	65.2	1	3	292	0.00	29.958 
17:25	87.4	87.4	89.7	49	65.9	1	3	248	0.00	29.958 
17:30	87.4	87.4	89.7	49	65.9	1	3	248	0.00	29.954 
17:35	86.5	86.5	88.3	49	65.0	1	3	315	0.00	29.954 
17:40	86.1	86.1	88.3	51	65.8	0	2	292	0.00	29.954 
17:45	85.9	85.9	88.0	51	65.6	0	1	292	0.00	29.957 
17:50	85.5	85.5	88.0	53	66.4	0	1	292	0.00	29.957 
17:55	84.9	84.9	87.3	54	66.4	0	1	292	0.00	29.957 
18:00	84.3	84.3	86.7	55	66.3	0	1	292	0.00	29.961 
18:05	84.0	84.0	86.5	56	66.6	0	1	292	0.00	29.961 
18:10	82.0	82.0	84.1	58	65.7	2	10	292	0.00	29.961 
18:15	79.0	79.0	80.9	63	65.3	2	5	315	0.00	29.998 
18:20	76.5	76.5	78.1	72	66.8	2	8	315	0.08	29.998 
18:25	73.3	73.3	73.3	79	66.4	3	6	270	0.02	29.998 
18:30	71.8	71.8	71.8	84	66.7	1	3	270	0.00	29.974 
18:35	71.1	71.1	71.1	84	66.0	1	5	248	0.00	29.974 
18:40	70.9	70.9	70.9	86	66.5	1	2	292	0.00	29.974 
18:45	70.8	70.8	70.8	87	66.7	0	2	292	0.00	29.988 
18:50	70.6	70.6	70.6	88	66.9	0	1	292	0.00	29.988 
18:55	70.6	70.6	70.6	89	67.2	2	6	270	0.00	29.988 
19:00	70.6	70.6	70.6	88	66.9	2	6	270	0.00	30.011 
19:05	70.9	70.9	70.9	87	66.8	1	4	292	0.00	30.011 
19:10	70.9	70.9	70.9	85	66.2	2	7	270	0.00	30.011 
19:15	71.1	71.1	71.1	83	65.7	2	5	90	0.00	29.988 
19:20	71.3	71.3	71.3	84	66.2	1	4	68	0.00	29.988 
19:25	71.3	71.3	71.3	82	65.5	2	4	270	0.00	29.988 
19:30	71.6	71.6	71.6	81	65.4	3	11	270	0.00	30.002 
19:35	71.8	71.8	71.8	80	65.3	4	11	248	0.00	30.002 
19:40	72.1	72.1	72.1	81	65.9	1	6	248	0.00	30.002 
19:45	72.1	72.1	72.1	82	66.3	0	1	180	0.00	29.988 
19:50	72.3	72.3	72.3	82	66.5	0	0	---	0.00	29.988 
19:55	72.5	72.5	72.5	81	66.3	0	0	---	0.00	29.988 
20:00	72.5	72.5	72.5	82	66.7	0	0	---	0.00	29.984 
20:05	72.7	72.7	72.7	78	65.4	0	2	248	0.00	29.984 
20:10	72.8	72.8	72.8	77	65.2	0	2	248	0.00	29.984 
20:15	73.0	73.0	73.0	75	64.6	0	1	248	0.00	29.987 
20:20	73.0	73.0	73.0	76	65.0	0	1	248	0.00	29.987 
20:25	73.2	73.2	73.2	76	65.2	0	1	248	0.00	29.987 
20:30	73.0	73.0	73.0	77	65.3	0	0	---	0.00	29.991 
20:35	72.8	72.8	72.8	77	65.2	0	0	---	0.00	29.991 
20:40	72.8	72.8	72.8	78	65.5	0	0	---	0.00	29.991 
20:45	72.8	72.8	72.8	78	65.5	0	0	---	0.00	29.998 
20:50	72.8	72.8	72.8	78	65.5	0	1	248	0.00	29.998 
20:55	73.0	73.0	73.0	78	65.7	0	0	---	0.00	29.998 
21:00	73.0	73.0	73.0	79	66.1	0	0	---	0.00	29.994 
21:05	73.2	73.2	73.2	78	65.9	0	1	248	0.00	29.994 
21:10	73.2	73.2	73.2	78	65.9	0	1	248	0.00	29.994 
21:15	73.2	73.2	73.2	78	65.9	0	1	248	0.00	30.002 
21:20	73.2	73.2	73.2	79	66.3	0	3	248	0.00	30.002 
21:25	73.2	73.2	73.2	78	65.9	0	2	248	0.00	30.002 
21:30	73.2	73.2	73.2	78	65.9	1	3	248	0.00	30.004 
21:35	73.3	73.3	73.3	78	66.0	1	3	270	0.00	30.004 
21:40	73.2	73.2	73.2	79	66.3	1	2	248	0.00	30.004 
21:45	73.2	73.2	73.2	79	66.3	1	3	248	0.00	30.001 
21:50	73.2	73.2	73.2	80	66.6	1	2	248	0.00	30.001 
21:55	73.2	73.2	73.2	80	66.6	0	1	248	0.00	30.001 
22:00	73.0	73.0	73.0	81	66.8	0	1	248	0.00	30.001 
22:05	73.0	73.0	73.0	81	66.8	0	3	248	0.00	30.001 
22:10	73.0	73.0	73.0	81	66.8	0	1	248	0.00	30.001 
22:15	72.8	72.8	72.8	82	67.0	0	1	248	0.00	30.003 
22:20	72.8	72.8	72.8	82	67.0	0	1	248	0.00	30.003 
22:25	72.7	72.7	72.7	82	66.9	0	1	248	0.00	30.003 
22:30	72.5	72.5	72.5	83	67.0	0	0	---	0.00	30.006 
22:35	72.3	72.3	72.3	84	67.2	0	1	248	0.00	30.006 
22:40	72.0	72.0	72.0	84	66.9	0	0	---	0.00	30.006 
22:45	71.8	71.8	71.8	84	66.7	0	0	---	0.00	30.012 
22:50	71.6	71.6	71.6	85	66.8	0	0	---	0.00	30.012 
22:55	71.6	71.6	71.6	85	66.8	0	0	---	0.00	30.012 
23:00	71.5	71.5	71.5	85	66.7	0	0	---	0.00	30.017 
23:05	71.3	71.3	71.3	86	66.9	0	0	---	0.00	30.017 
23:10	71.1	71.1	71.1	86	66.7	0	0	---	0.00	30.017 
23:15	70.9	70.9	70.9	86	66.5	0	0	---	0.00	30.016 
23:20	70.8	70.8	70.8	87	66.7	0	1	248	0.00	30.016 
23:25	70.6	70.6	70.6	87	66.5	0	0	---	0.00	30.016 
23:30	70.4	70.4	70.4	87	66.3	0	1	248	0.00	30.016 
23:35	70.6	70.6	70.6	87	66.5	0	1	248	0.00	30.016 
23:40	70.6	70.6	70.6	87	66.5	0	2	248	0.00	30.016 
23:45	70.8	70.8	70.8	86	66.4	0	3	248	0.00	30.013 
23:50	70.9	70.9	70.9	85	66.2	0	2	248	0.00	30.013 
23:55	71.1	71.1	71.1	84	66.0	0	1	248	0.00	30.013 

CoCoRaHS
IN-AL-39
A2 Web Hosting
Creative Commons License
GoDaddy
Look for:

loaded 2017-10-16 18:31:56 • last modified 2010-11-18 10:43:29
Privacy PolicyDisclaimer
• wx.awcolley.com is powered by PmWiki v.2002016 •
• all content (unless otherwise noted) © 2017 A W Colley